South Washington, Vermont
Current Conditions -  °F | °C
As of 11:51 AM on Friday 31 Oct 2014 (Local Time) from KMPV Reporting Station
Clear Clear  
Wind Chill:   Ceiling: Unl
Heat Index:   Visibility: 10mi
Dew Point: -1°   Wind: 0mph
Humidity: 60%   Direction: NA
Pressure: 30.05"   Gusts: NA
Location:  44.0671°N, 72.4216°W
Report Text: KMPV 311551Z AUTO 00000KT 10SM CLR 07/M01 A3005 RMK AO2 SLP185 T00671006
Loading
Personal Weather Stations






























Interactive Weather Map
Tropical Storm Tracking
New forecast layout! Learn more

10-Day Weather Forecast

Advertisements
Track Severe Weather on mobile